Time;durP1;ratioP1;P1;durP2;ratioP2;P2;SDS_P1;SDS_P2;PMS_P1;PMS_P2;Temp;Humidity;BMP_temperature;BMP_pressure;BME280_temperature;BME280_humidity;BME280_pressure;Samples;Min_cycle;Max_cycle;Signal;HPM_P1;HPM_P2
2023/06/08 00:01:25;;;;;;;20.88;13.23;;;;;;;19.21;60.23;99622.69;4408541;32;20471;-85
2023/06/08 00:03:52;;;;;;;20.00;11.77;;;;;;;19.27;60.23;99613.50;4407153;32;20132;-85
2023/06/08 00:06:20;;;;;;;19.48;11.93;;;;;;;18.92;60.20;99605.37;4396130;32;20138;-85
2023/06/08 00:08:46;;;;;;;18.27;10.98;;;;;;;19.30;60.22;99608.00;4394521;32;20249;-85
2023/06/08 00:11:12;;;;;;;17.95;11.35;;;;;;;18.99;60.21;99602.22;4397276;32;20106;-85
2023/06/08 00:13:37;;;;;;;17.90;12.15;;;;;;;18.92;60.20;99600.09;4392130;32;20106;-85
2023/06/08 00:16:04;;;;;;;20.98;12.35;;;;;;;18.97;60.21;99600.66;4380739;32;20141;-84
2023/06/08 00:18:30;;;;;;;23.48;12.48;;;;;;;18.93;60.21;99596.53;4405207;32;20120;-85
2023/06/08 00:20:56;;;;;;;21.50;12.55;;;;;;;19.01;60.22;99594.22;4422472;32;20156;-85
2023/06/08 00:23:21;;;;;;;21.87;12.48;;;;;;;18.78;60.20;99595.78;4407655;32;20118;-85
2023/06/08 00:25:47;;;;;;;23.90;12.65;;;;;;;18.66;60.19;99593.97;4422500;32;20482;-85
2023/06/08 00:28:12;;;;;;;22.13;13.80;;;;;;;18.67;60.19;99587.75;4407997;32;20159;-84
2023/06/08 00:30:38;;;;;;;24.12;14.20;;;;;;;18.84;60.20;99587.44;4408245;32;20445;-85
2023/06/08 00:33:04;;;;;;;25.73;13.98;;;;;;;18.89;60.21;99584.50;4421809;32;20094;-85
2023/06/08 00:35:30;;;;;;;20.65;13.20;;;;;;;18.68;60.19;99586.78;4396963;32;20490;-85
2023/06/08 00:37:56;;;;;;;20.90;13.43;;;;;;;18.59;60.19;99590.88;4395456;32;20509;-85
2023/06/08 00:40:21;;;;;;;27.33;15.57;;;;;;;18.55;60.19;99592.03;4405531;32;20106;-85
2023/06/08 00:42:46;;;;;;;25.02;14.55;;;;;;;18.59;60.19;99593.50;4401373;32;26314;-85
2023/06/08 00:45:12;;;;;;;29.92;15.55;;;;;;;18.62;60.20;99593.34;4412986;32;20503;-84
2023/06/08 00:47:37;;;;;;;27.67;15.73;;;;;;;18.74;60.20;99591.69;4405855;32;33460;-85
2023/06/08 00:50:03;;;;;;;24.63;14.70;;;;;;;18.53;60.18;99595.72;4422065;32;20169;-85
2023/06/08 00:52:28;;;;;;;28.12;16.30;;;;;;;18.77;60.20;99587.97;4402632;32;20125;-85
2023/06/08 00:54:54;;;;;;;27.08;15.43;;;;;;;18.60;60.19;99595.19;4408161;32;20094;-85
2023/06/08 00:57:19;;;;;;;27.08;16.17;;;;;;;18.54;60.18;99592.97;4407992;32;20115;-84
2023/06/08 00:59:49;;;;;;;28.58;14.95;;;;;;;18.47;60.19;99593.50;4407363;32;25214;-84
2023/06/08 01:02:16;;;;;;;28.50;15.23;;;;;;;18.67;60.19;99599.13;4395352;32;20185;-85
2023/06/08 01:04:41;;;;;;;28.15;16.30;;;;;;;18.48;60.18;99596.03;4392708;32;20182;-85
2023/06/08 01:07:28;;;;;;;25.52;15.65;;;;;;;18.62;60.20;99590.69;4390627;32;38890;-85
2023/06/08 01:10:02;;;;;;;28.17;15.30;;;;;;;18.79;60.20;99594.84;4421952;32;20926;-84
2023/06/08 01:12:54;;;;;;;27.02;15.73;;;;;;;18.58;60.19;99601.53;4392682;32;20102;-84
2023/06/08 01:15:30;;;;;;;29.15;15.30;;;;;;;18.40;60.18;99601.81;4404494;32;20117;-84
2023/06/08 01:18:04;;;;;;;24.60;15.60;;;;;;;18.37;60.18;99602.00;4394864;32;20482;-85
2023/06/08 01:21:28;;;;;;;26.65;15.65;;;;;;;18.44;60.18;99597.16;4392545;32;20178;-84
2023/06/08 01:24:23;;;;;;;31.77;16.37;;;;;;;18.62;60.20;99600.38;4372253;32;20115;-84
2023/06/08 01:26:49;;;;;;;22.33;15.15;;;;;;;18.74;60.20;99604.84;4363379;32;20828;-85
2023/06/08 01:29:15;;;;;;;24.87;15.70;;;;;;;18.63;60.20;99599.44;4397332;32;20094;-85
2023/06/08 01:31:40;;;;;;;24.52;14.63;;;;;;;18.66;60.19;99607.16;4394979;32;20098;-85
2023/06/08 01:34:06;;;;;;;24.23;14.95;;;;;;;18.65;60.19;99595.75;4422574;32;31654;-84
2023/06/08 01:36:40;;;;;;;27.37;14.55;;;;;;;18.72;60.20;99600.62;4394116;32;20374;-85
2023/06/08 01:39:59;;;;;;;22.55;13.77;;;;;;;18.72;60.20;99595.38;4416678;32;20086;-85
2023/06/08 01:42:24;;;;;;;24.27;14.27;;;;;;;18.88;60.21;99590.72;4344746;32;20455;-85
2023/06/08 01:45:00;;;;;;;21.95;14.02;;;;;;;18.90;60.21;99588.81;4382715;32;20135;-85
2023/06/08 01:47:33;;;;;;;24.12;14.50;;;;;;;18.99;60.21;99591.69;4386673;32;20165;-85
2023/06/08 01:49:59;;;;;;;20.67;13.70;;;;;;;18.96;60.21;99594.53;4406788;32;20157;-85
2023/06/08 01:52:25;;;;;;;22.85;14.20;;;;;;;18.96;60.21;99604.25;4403542;32;20225;-86
2023/06/08 01:54:50;;;;;;;23.65;14.52;;;;;;;18.95;60.21;99599.91;4397023;32;20485;-86
2023/06/08 01:57:15;;;;;;;20.67;13.75;;;;;;;18.98;60.21;99597.91;4394528;32;20169;-85
2023/06/08 01:59:41;;;;;;;22.20;14.60;;;;;;;19.01;60.21;99595.06;4409379;32;20094;-85
2023/06/08 02:02:06;;;;;;;21.08;14.02;;;;;;;19.18;60.22;99593.03;4423189;32;20153;-85
2023/06/08 02:04:32;;;;;;;24.75;15.85;;;;;;;19.19;60.22;99590.28;4423302;32;20124;-84
2023/06/08 02:06:57;;;;;;;23.40;15.00;;;;;;;19.40;60.23;99585.31;4396145;32;22316;-86
2023/06/08 02:09:22;;;;;;;22.25;14.70;;;;;;;19.42;60.23;99585.19;4423200;32;20152;-85
2023/06/08 02:11:48;;;;;;;26.05;15.45;;;;;;;19.22;60.22;99587.44;4401842;32;20098;-85
2023/06/08 02:14:14;;;;;;;21.48;13.52;;;;;;;19.19;60.22;99590.28;4422699;32;30874;-85
2023/06/08 02:16:40;;;;;;;22.05;13.95;;;;;;;19.27;60.23;99587.94;4409195;32;20163;-84
2023/06/08 02:19:05;;;;;;;23.17;14.02;;;;;;;19.36;60.23;99586.44;4406970;32;20118;-85
2023/06/08 02:21:30;;;;;;;22.62;14.02;;;;;;;19.30;60.22;99579.81;4418107;32;20447;-85
2023/06/08 02:23:56;;;;;;;23.27;13.20;;;;;;;19.28;60.22;99587.00;4409465;32;20126;-86
2023/06/08 02:26:22;;;;;;;23.15;13.55;;;;;;;19.32;60.23;99587.63;4408510;32;23819;-86
2023/06/08 02:28:47;;;;;;;20.88;13.75;;;;;;;19.35;60.23;99583.91;4399587;32;20081;-86
2023/06/08 02:31:13;;;;;;;21.33;13.80;;;;;;;19.38;60.24;99579.25;4408601;32;21562;-86
2023/06/08 02:33:38;;;;;;;20.12;13.43;;;;;;;19.25;60.23;99587.22;4423329;32;20438;-87
2023/06/08 02:36:04;;;;;;;20.62;14.20;;;;;;;19.30;60.22;99577.19;4409078;32;20200;-87
2023/06/08 02:38:30;;;;;;;21.30;14.13;;;;;;;19.42;60.23;99583.41;4423290;32;20104;-86
2023/06/08 02:40:55;;;;;;;21.08;13.65;;;;;;;19.46;60.23;99573.47;4409344;32;20154;-86
2023/06/08 02:43:21;;;;;;;28.80;14.40;;;;;;;19.48;60.24;99574.19;4423444;32;20390;-87
2023/06/08 02:45:46;;;;;;;24.58;13.65;;;;;;;19.46;60.23;99570.81;4423197;32;20466;-86
2023/06/08 02:48:11;;;;;;;21.17;13.25;;;;;;;19.26;60.23;99572.22;4393666;32;22227;-85
2023/06/08 02:50:37;;;;;;;23.67;13.68;;;;;;;19.27;60.22;99582.69;4391467;32;20177;-87
2023/06/08 02:53:02;;;;;;;20.37;13.18;;;;;;;19.30;60.22;99571.91;4422764;32;28962;-86
2023/06/08 02:55:34;;;;;;;22.35;13.70;;;;;;;19.37;60.22;99574.94;4396705;32;20515;-85
2023/06/08 02:58:00;;;;;;;24.12;14.15;;;;;;;19.42;60.23;99574.63;4406900;32;20078;-85
2023/06/08 03:00:26;;;;;;;20.73;13.48;;;;;;;19.30;60.22;99576.34;4404952;32;20450;-85
2023/06/08 03:02:51;;;;;;;22.90;13.13;;;;;;;19.20;60.22;99573.50;4406294;32;29641;-85
2023/06/08 03:05:17;;;;;;;21.17;14.10;;;;;;;19.29;60.22;99575.50;4404854;32;20429;-86
2023/06/08 03:07:42;;;;;;;22.90;14.43;;;;;;;19.38;60.24;99568.69;4423388;32;20503;-86
2023/06/08 03:10:08;;;;;;;19.67;13.18;;;;;;;19.54;60.24;99576.41;4396252;32;20178;-86
2023/06/08 03:12:34;;;;;;;22.45;14.20;;;;;;;19.49;60.24;99576.72;4406641;32;20102;-85
2023/06/08 03:14:59;;;;;;;26.58;14.30;;;;;;;19.43;60.23;99576.31;4404226;32;20097;-86
2023/06/08 03:17:26;;;;;;;22.83;15.38;;;;;;;19.35;60.23;99586.56;4409213;32;20104;-86
2023/06/08 03:19:52;;;;;;;20.90;13.75;;;;;;;19.43;60.23;99573.69;4406366;32;20094;-86
2023/06/08 03:22:19;;;;;;;23.27;13.80;;;;;;;19.52;60.23;99584.41;4408985;32;20176;-85
2023/06/08 03:24:48;;;;;;;23.25;13.93;;;;;;;19.54;60.25;99582.53;4422542;32;20418;-85
2023/06/08 03:27:14;;;;;;;25.85;14.63;;;;;;;19.65;60.25;99580.94;4372281;32;20152;-86
2023/06/08 03:29:39;;;;;;;23.27;14.52;;;;;;;19.59;60.24;99584.84;4404342;32;20450;-86
2023/06/08 03:32:05;;;;;;;24.60;14.70;;;;;;;19.66;60.24;99582.63;4396172;32;20168;-86
2023/06/08 03:34:31;;;;;;;26.12;14.30;;;;;;;19.52;60.24;99573.00;4402704;32;20078;-85
2023/06/08 03:36:56;;;;;;;22.30;14.07;;;;;;;19.62;60.23;99579.34;4423012;32;20458;-86
2023/06/08 03:39:22;;;;;;;22.37;15.23;;;;;;;19.61;60.25;99581.13;4408815;32;20106;-86
2023/06/08 03:41:47;;;;;;;20.60;14.55;;;;;;;19.76;60.25;99583.63;4406509;32;20125;-86
2023/06/08 03:44:12;;;;;;;22.52;14.45;;;;;;;19.70;60.25;99577.00;4401629;32;20177;-86
2023/06/08 03:46:38;;;;;;;24.83;14.77;;;;;;;19.69;60.24;99585.03;4409265;32;20480;-86
2023/06/08 03:49:03;;;;;;;21.20;14.60;;;;;;;19.73;60.25;99583.88;4406981;32;20142;-86
2023/06/08 03:51:29;;;;;;;26.45;14.27;;;;;;;19.84;60.25;99587.41;4403039;32;20399;-86
2023/06/08 03:53:54;;;;;;;22.40;14.95;;;;;;;19.99;60.26;99589.87;4390945;32;20136;-87
2023/06/08 03:56:20;;;;;;;19.23;13.10;;;;;;;20.04;60.27;99585.94;4407264;32;20138;-86
2023/06/08 03:58:45;;;;;;;21.42;14.30;;;;;;;19.95;60.26;99593.72;4408780;32;20116;-85
2023/06/08 04:01:11;;;;;;;22.15;13.75;;;;;;;20.00;60.26;99591.56;4408881;32;20164;-85
2023/06/08 04:03:37;;;;;;;24.65;14.43;;;;;;;20.08;60.26;99587.41;4406908;32;20103;-85
2023/06/08 04:06:03;;;;;;;18.55;13.13;;;;;;;20.19;60.27;99582.19;4396230;32;20455;-86
2023/06/08 04:08:31;;;;;;;18.02;13.05;;;;;;;20.28;60.28;99574.50;4393775;32;20129;-85
2023/06/08 04:10:59;;;;;;;21.10;14.25;;;;;;;20.39;60.28;99575.41;4408684;32;20105;-85
2023/06/08 04:13:25;;;;;;;18.42;13.10;;;;;;;20.44;60.28;99575.94;4408764;32;20078;-85
2023/06/08 04:15:51;;;;;;;21.05;13.25;;;;;;;20.43;60.29;99574.25;4408730;32;20155;-85
2023/06/08 04:18:16;;;;;;;23.80;14.07;;;;;;;20.41;60.28;99570.03;4407048;32;20463;-85
2023/06/08 04:20:41;;;;;;;17.92;12.50;;;;;;;20.53;60.28;99575.22;4408913;32;20129;-83
2023/06/08 04:23:07;;;;;;;19.00;13.05;;;;;;;20.62;60.29;99570.22;4405953;32;20173;-85
2023/06/08 04:25:32;;;;;;;18.08;12.68;;;;;;;20.76;60.30;99577.91;4393205;32;20553;-84
2023/06/08 04:27:58;;;;;;;20.02;13.93;;;;;;;20.94;60.31;99578.31;4401427;32;20155;-85
2023/06/08 04:30:23;;;;;;;15.75;12.07;;;;;;;20.82;60.30;99575.66;4421049;32;20100;-84
2023/06/08 04:32:49;;;;;;;17.75;12.82;;;;;;;20.85;60.30;99579.88;4395690;32;20103;-84
2023/06/08 04:35:14;;;;;;;18.55;12.35;;;;;;;20.77;60.29;99583.09;4393311;32;20116;-84
2023/06/08 04:37:41;;;;;;;19.25;11.77;;;;;;;20.96;60.31;99579.03;4417237;32;20117;-85
2023/06/08 04:40:09;;;;;;;16.42;12.30;;;;;;;20.74;60.30;99575.38;4393276;32;20132;-84
2023/06/08 04:42:39;;;;;;;17.17;13.07;;;;;;;20.82;60.30;99580.97;4417784;32;20090;-84
2023/06/08 04:45:07;;;;;;;17.60;12.73;;;;;;;21.08;60.32;99580.75;4408591;32;20435;-84
2023/06/08 04:47:35;;;;;;;15.02;11.50;;;;;;;21.11;60.32;99583.13;4422154;32;20102;-85
2023/06/08 04:50:05;;;;;;;16.62;11.27;;;;;;;21.21;60.33;99583.25;4406022;32;20110;-84
2023/06/08 04:52:31;;;;;;;15.27;10.98;;;;;;;21.44;60.34;99590.25;4404689;32;20426;-85
2023/06/08 04:55:01;;;;;;;19.23;11.70;;;;;;;21.32;60.32;99591.25;4397829;32;20469;-84
2023/06/08 04:57:26;;;;;;;15.93;12.15;;;;;;;21.38;60.33;99594.22;4408342;32;20494;-85
2023/06/08 04:59:52;;;;;;;24.67;12.95;;;;;;;21.41;60.33;99582.56;4422319;32;20128;-85
2023/06/08 05:02:18;;;;;;;15.88;11.65;;;;;;;21.37;60.33;99589.91;4404734;32;20458;-85
2023/06/08 05:04:43;;;;;;;19.08;11.27;;;;;;;21.37;60.33;99594.34;4388534;32;20113;-84
2023/06/08 05:07:08;;;;;;;14.35;11.60;;;;;;;21.59;60.34;99594.34;4404427;32;28964;-84
2023/06/08 05:09:34;;;;;;;13.60;10.15;;;;;;;21.70;60.35;99593.47;4413835;32;31693;-84
2023/06/08 05:11:59;;;;;;;17.62;11.18;;;;;;;21.92;60.36;99593.41;4421827;32;20505;-84
2023/06/08 05:14:25;;;;;;;16.73;11.45;;;;;;;21.93;60.36;99592.44;4405489;32;20129;-84
2023/06/08 05:16:50;;;;;;;15.93;11.18;;;;;;;22.06;60.37;99592.34;4404922;32;26373;-84
2023/06/08 05:19:15;;;;;;;15.07;11.40;;;;;;;22.00;60.36;99593.66;4392216;32;20090;-84
2023/06/08 05:21:41;;;;;;;17.40;11.38;;;;;;;22.35;60.39;99592.56;4404318;32;20146;-84
2023/06/08 05:24:07;;;;;;;17.10;11.63;;;;;;;22.34;60.39;99590.88;4392890;32;20114;-84
2023/06/08 05:26:32;;;;;;;18.35;11.52;;;;;;;22.46;60.39;99592.50;4394061;32;20739;-84
2023/06/08 05:28:58;;;;;;;13.70;10.57;;;;;;;22.63;60.39;99594.59;4392318;32;20156;-84
2023/06/08 05:31:23;;;;;;;13.15;10.43;;;;;;;22.81;60.41;99591.34;4390123;32;20083;-83
2023/06/08 05:33:49;;;;;;;16.98;10.60;;;;;;;22.82;60.40;99590.41;4404240;32;20098;-83
2023/06/08 05:36:14;;;;;;;15.00;10.80;;;;;;;22.67;60.40;99596.00;4416064;32;24263;-83
2023/06/08 05:38:40;;;;;;;16.50;10.63;;;;;;;22.79;60.40;99588.84;4409496;32;20494;-84
2023/06/08 05:41:06;;;;;;;14.15;10.43;;;;;;;22.96;60.41;99595.41;4421320;32;20427;-84
2023/06/08 05:43:31;;;;;;;16.30;10.20;;;;;;;22.88;60.41;99593.38;4394468;32;20116;-84
2023/06/08 05:45:57;;;;;;;18.48;11.48;;;;;;;22.84;60.41;99591.97;4406034;32;20154;-84
2023/06/08 05:48:22;;;;;;;15.38;10.40;;;;;;;22.93;60.42;99587.66;4391880;32;20117;-84
2023/06/08 05:50:48;;;;;;;22.37;12.23;;;;;;;23.00;60.41;99591.50;4401545;32;20182;-84
2023/06/08 05:53:13;;;;;;;15.52;11.95;;;;;;;22.93;60.41;99591.16;4407106;32;20082;-84
2023/06/08 05:55:41;;;;;;;13.95;11.00;;;;;;;22.70;60.40;99596.72;4420744;32;20105;-84
2023/06/08 05:58:08;;;;;;;13.80;10.05;;;;;;;22.79;60.40;99598.59;4404664;32;20566;-84
2023/06/08 06:00:33;;;;;;;15.15;10.10;;;;;;;22.80;60.40;99590.50;4403686;32;20453;-84
2023/06/08 06:02:58;;;;;;;16.23;10.55;;;;;;;;;;4407405;32;20128;-85
2023/06/08 06:05:24;;;;;;;13.50;10.53;;;;;;;23.20;60.43;99590.63;4406996;32;26869;-85
2023/06/08 06:07:49;;;;;;;12.95;10.13;;;;;;;23.05;60.42;99589.28;4422415;32;29312;-84
2023/06/08 06:10:15;;;;;;;17.17;10.52;;;;;;;23.04;60.43;99587.59;4396994;32;20426;-84
2023/06/08 06:12:40;;;;;;;19.37;11.50;;;;;;;23.25;60.43;99588.41;4406808;32;20110;-85
2023/06/08 06:15:06;;;;;;;15.02;11.82;;;;;;;23.34;60.44;99592.06;4413436;32;20547;-85
2023/06/08 06:17:31;;;;;;;15.35;11.50;;;;;;;23.54;60.45;99585.84;4406795;32;20141;-84
2023/06/08 06:19:57;;;;;;;18.73;10.70;;;;;;;23.66;60.44;99585.75;4392281;32;20156;-85
2023/06/08 06:22:22;;;;;;;16.35;11.20;;;;;;;23.85;60.46;99588.44;4409584;32;20129;-85
2023/06/08 06:24:48;;;;;;;15.95;12.13;;;;;;;23.75;60.46;99588.44;4407483;32;20145;-85
2023/06/08 06:27:13;;;;;;;22.87;11.68;;;;;;;23.96;60.46;99591.00;4396120;32;34209;-85
2023/06/08 06:29:39;;;;;;;16.95;12.68;;;;;;;23.93;60.47;99585.12;4407536;32;20367;-84
2023/06/08 06:32:05;;;;;;;16.17;11.98;;;;;;;24.13;60.48;99587.66;4391003;32;20112;-84
2023/06/08 06:34:30;;;;;;;14.77;11.50;;;;;;;24.36;60.48;99580.25;4393670;32;20132;-85
2023/06/08 06:36:56;;;;;;;17.55;11.75;;;;;;;24.38;60.49;99580.13;4423474;32;20611;-85
2023/06/08 06:39:22;;;;;;;17.08;11.30;;;;;;;24.50;60.49;99573.66;4406898;32;20481;-85
2023/06/08 06:41:48;;;;;;;15.65;11.12;;;;;;;24.46;60.50;99580.25;4423101;32;20145;-84
2023/06/08 06:44:13;;;;;;;14.73;11.68;;;;;;;24.41;60.49;99574.53;4423150;32;20094;-85
2023/06/08 06:46:40;;;;;;;18.10;11.75;;;;;;;24.73;60.50;99575.03;4423571;32;20086;-85
2023/06/08 06:49:05;;;;;;;14.90;11.50;;;;;;;24.84;60.52;99573.16;4422916;32;20153;-84
2023/06/08 06:51:30;;;;;;;16.12;11.43;;;;;;;24.88;60.51;99579.91;4423688;32;20142;-85
2023/06/08 06:53:56;;;;;;;49.45;41.17;;;;;;;25.13;60.52;99576.63;4407104;32;20102;-84
2023/06/08 06:56:21;;;;;;;17.75;13.57;;;;;;;25.31;60.54;99582.84;4423218;32;20136;-84
2023/06/08 06:58:47;;;;;;;19.33;11.15;;;;;;;25.39;60.54;99579.47;4406155;32;21830;-85
2023/06/08 07:01:12;;;;;;;13.68;10.95;;;;;;;25.35;60.54;99572.75;4406875;32;20087;-84
2023/06/08 07:03:40;;;;;;;20.75;12.48;;;;;;;25.50;60.55;99567.75;4404357;32;20146;-84
2023/06/08 07:06:06;;;;;;;15.98;11.88;;;;;;;25.52;60.54;99576.44;4396865;32;20124;-84
2023/06/08 07:08:32;;;;;;;16.27;12.40;;;;;;;25.66;60.55;99568.78;4404431;32;20140;-85
2023/06/08 07:10:57;;;;;;;66.87;47.25;;;;;;;25.78;60.57;99569.44;4406646;32;20110;-84
2023/06/08 07:13:23;;;;;;;16.90;15.10;;;;;;;25.74;60.56;99570.72;4418088;32;20513;-84
2023/06/08 07:15:48;;;;;;;26.23;12.20;;;;;;;26.01;60.57;99568.00;4412566;32;33245;-84
2023/06/08 07:18:13;;;;;;;19.27;11.90;;;;;;;26.11;60.58;99567.94;4408003;32;20108;-85
2023/06/08 07:20:39;;;;;;;39.60;14.65;;;;;;;26.31;60.59;99568.63;4408970;32;20106;-85
2023/06/08 07:23:05;;;;;;;15.02;12.05;;;;;;;26.27;60.59;99561.94;4408971;32;20150;-84
2023/06/08 07:25:30;;;;;;;16.10;11.93;;;;;;;26.34;60.59;99571.00;4406373;32;20098;-85
2023/06/08 07:27:55;;;;;;;13.80;12.10;;;;;;;26.11;60.58;99575.13;4404119;32;20138;-85
2023/06/08 07:30:21;;;;;;;18.60;13.43;;;;;;;26.23;60.58;99574.72;4423179;32;20133;-84
2023/06/08 07:32:46;;;;;;;15.63;12.57;;;;;;;26.24;60.58;99572.88;4422577;32;30920;-84
2023/06/08 07:35:12;;;;;;;21.40;13.45;;;;;;;26.37;60.59;99575.22;4422975;32;20395;-84
2023/06/08 07:37:37;;;;;;;17.62;13.75;;;;;;;26.56;60.60;99567.03;4408406;32;37711;-85
2023/06/08 07:40:09;;;;;;;17.48;14.35;;;;;;;26.82;60.62;99570.53;4400836;32;20464;-84
2023/06/08 07:42:35;;;;;;;16.42;12.85;;;;;;;26.93;60.62;99559.56;4396858;32;20118;-84
2023/06/08 07:45:00;;;;;;;15.18;12.32;;;;;;;27.06;60.63;99563.69;4408964;32;20438;-84
2023/06/08 07:47:26;;;;;;;15.68;12.75;;;;;;;27.15;60.63;99573.41;4393686;32;20074;-84
2023/06/08 07:49:52;;;;;;;16.17;12.75;;;;;;;27.28;60.65;99576.50;4422959;32;20496;-84
2023/06/08 07:52:17;;;;;;;18.92;13.32;;;;;;;27.44;60.65;99571.19;4422665;32;20120;-84
2023/06/08 07:54:43;;;;;;;16.35;12.85;;;;;;;27.41;60.65;99571.53;4406448;32;20486;-85
2023/06/08 07:57:08;;;;;;;18.20;13.65;;;;;;;27.70;60.66;99562.31;4403823;32;20109;-84
2023/06/08 07:59:34;;;;;;;15.90;12.50;;;;;;;27.92;60.68;99566.19;4422770;32;20150;-84
2023/06/08 08:02:00;;;;;;;16.87;11.63;;;;;;;28.12;60.68;99563.03;4405746;32;22238;-84
2023/06/08 08:04:25;;;;;;;19.42;12.20;;;;;;;28.25;60.69;99564.44;4422990;32;20455;-85
2023/06/08 08:06:51;;;;;;;16.27;12.48;;;;;;;28.01;60.68;99566.06;4395265;32;20205;-85
2023/06/08 08:09:16;;;;;;;18.87;13.05;;;;;;;27.96;60.67;99563.03;4387885;32;20087;-84
2023/06/08 08:11:41;;;;;;;19.70;12.13;;;;;;;27.95;60.67;99556.03;4401051;32;20158;-84
2023/06/08 08:14:09;;;;;;;15.77;12.90;;;;;;;27.81;60.66;99559.31;4395113;32;34120;-85
2023/06/08 08:16:39;;;;;;;26.25;13.98;;;;;;;27.96;60.67;99564.88;4408693;32;20116;-84
2023/06/08 08:19:05;;;;;;;17.17;12.55;;;;;;;28.04;60.67;99555.00;4399499;32;20120;-84
2023/06/08 08:21:30;;;;;;;17.27;12.32;;;;;;;28.14;60.68;99557.53;4422519;32;20446;-85
2023/06/08 08:23:56;;;;;;;15.98;10.95;;;;;;;28.54;60.71;99551.37;4422397;32;20872;-84
2023/06/08 08:26:21;;;;;;;15.07;12.10;;;;;;;28.43;60.70;99559.75;4406764;32;20176;-85
2023/06/08 08:28:47;;;;;;;13.23;11.30;;;;;;;28.63;60.71;99550.38;4422682;32;20147;-85
2023/06/08 08:31:12;;;;;;;14.30;11.43;;;;;;;28.78;60.71;99546.97;4421208;32;34399;-84
2023/06/08 08:33:38;;;;;;;16.50;12.20;;;;;;;28.68;60.71;99552.53;4405817;32;20511;-85
2023/06/08 08:36:04;;;;;;;15.13;11.50;;;;;;;28.79;60.72;99549.47;4412602;32;20159;-85
2023/06/08 08:38:30;;;;;;;15.05;11.55;;;;;;;28.99;60.73;99547.28;4405962;32;20128;-85
2023/06/08 08:41:01;;;;;;;15.45;11.63;;;;;;;29.03;60.74;99544.09;4416852;32;21844;-85
2023/06/08 08:43:32;;;;;;;13.43;10.65;;;;;;;28.99;60.73;99550.81;4394026;32;20132;-85
2023/06/08 08:45:57;;;;;;;14.30;11.50;;;;;;;29.08;60.74;99548.09;4418450;32;20077;-82
2023/06/08 08:48:23;;;;;;;15.93;10.98;;;;;;;29.15;60.74;99544.56;4407984;32;20101;-85
2023/06/08 08:50:53;;;;;;;13.10;10.02;;;;;;;28.91;60.73;99545.47;4400558;32;20520;-84
2023/06/08 08:53:21;;;;;;;15.00;10.18;;;;;;;29.01;60.74;99550.63;4386129;32;20128;-84
2023/06/08 08:55:48;;;;;;;12.00;9.50;;;;;;;29.16;60.73;99556.97;4407623;32;20097;-85
2023/06/08 08:58:14;;;;;;;14.32;10.63;;;;;;;29.27;60.75;99553.88;4405784;32;20133;-85
2023/06/08 09:00:40;;;;;;;13.38;11.12;;;;;;;29.21;60.74;99559.94;4416508;32;20442;-85
2023/06/08 09:03:05;;;;;;;15.98;10.57;;;;;;;29.12;60.74;99560.16;4422309;32;20154;-85
2023/06/08 09:05:30;;;;;;;14.90;11.40;;;;;;;29.02;60.74;99550.47;4421999;32;20480;-85
2023/06/08 09:07:56;;;;;;;11.52;9.65;;;;;;;29.13;60.74;99554.62;4422115;32;20078;-84
2023/06/08 09:10:23;;;;;;;11.25;9.98;;;;;;;29.45;60.75;99542.97;4407273;32;20170;-84
2023/06/08 09:12:49;;;;;;;14.25;10.07;;;;;;;29.79;60.76;99547.94;4421760;32;20347;-84
2023/06/08 09:15:39;;;;;;;10.13;9.00;;;;;;;29.93;60.78;99541.81;4421786;32;20112;-84
2023/06/08 09:18:17;;;;;;;11.38;9.25;;;;;;;30.01;60.78;99532.88;4405317;32;20090;-84
2023/06/08 09:20:43;;;;;;;12.95;9.15;;;;;;;30.14;60.79;99535.84;4396113;32;20221;-84
2023/06/08 09:23:20;;;;;;;11.00;9.00;;;;;;;30.34;60.80;99532.66;4407744;32;20458;-84
2023/06/08 09:25:47;;;;;;;10.65;9.55;;;;;;;30.25;60.79;99532.72;4421771;32;20077;-83
2023/06/08 09:28:31;;;;;;;15.70;9.60;;;;;;;30.56;60.81;99526.41;4394663;32;20085;-84
2023/06/08 09:30:57;;;;;;;11.98;9.65;;;;;;;30.13;60.79;99528.81;4395810;32;20493;-83
2023/06/08 09:33:26;;;;;;;9.98;8.27;;;;;;;30.42;60.80;99527.22;4391745;32;20099;-84
2023/06/08 09:35:57;;;;;;;11.38;7.37;;;;;;;30.30;60.80;99518.78;4415537;32;20090;-82
2023/06/08 09:38:25;;;;;;;12.45;8.45;;;;;;;30.43;60.80;99516.28;4421276;32;20108;-81
2023/06/08 09:40:51;;;;;;;16.40;9.48;;;;;;;30.33;60.80;99517.56;4405085;32;20102;-81
2023/06/08 09:43:30;;;;;;;11.07;9.07;;;;;;;30.44;60.80;99520.63;4421279;32;20540;-81
2023/06/08 09:45:55;;;;;;;15.43;9.07;;;;;;;30.06;60.79;99517.12;4423693;32;20093;-81
2023/06/08 09:48:21;;;;;;;17.50;8.88;;;;;;;29.97;60.79;99507.41;4422823;32;33442;-81
2023/06/08 09:50:46;;;;;;;10.93;8.73;;;;;;;29.98;60.79;99519.81;4407390;32;20489;-81
2023/06/08 09:53:11;;;;;;;10.35;8.75;;;;;;;29.95;60.78;99525.53;4423625;32;20393;-81
2023/06/08 09:55:37;;;;;;;11.18;8.52;;;;;;;29.84;60.79;99518.75;4395059;32;20102;-81
2023/06/08 09:58:02;;;;;;;13.00;8.77;;;;;;;29.98;60.79;99521.66;4406194;32;34779;-81
2023/06/08 10:00:29;;;;;;;14.77;9.43;;;;;;;29.93;60.78;99517.69;4392537;32;20525;-81
2023/06/08 10:03:01;;;;;;;13.80;9.13;;;;;;;29.98;60.80;99508.25;4381874;32;20454;-81
2023/06/08 10:05:29;;;;;;;13.18;7.95;;;;;;;29.96;60.78;99508.44;4404729;32;20419;-81
2023/06/08 10:07:55;;;;;;;9.35;8.32;;;;;;;30.20;60.79;99512.78;4423562;32;20423;-81
2023/06/08 10:10:24;;;;;;;10.38;7.32;;;;;;;30.32;60.80;99499.78;4423094;32;20117;-81
2023/06/08 10:12:49;;;;;;;11.43;6.97;;;;;;;30.46;60.81;99504.34;4423754;32;20094;-81
2023/06/08 10:15:15;;;;;;;11.63;7.50;;;;;;;30.67;60.82;99491.06;4396606;32;20113;-81
2023/06/08 10:17:41;;;;;;;9.18;8.20;;;;;;;30.68;60.82;99490.03;4423068;32;20228;-81
2023/06/08 10:20:07;;;;;;;12.15;7.75;;;;;;;30.62;60.82;99480.03;4409342;32;20128;-81
2023/06/08 10:22:33;;;;;;;8.77;7.87;;;;;;;30.60;60.83;99486.59;4423300;32;20145;-81
2023/06/08 10:24:58;;;;;;;10.15;7.95;;;;;;;30.76;60.83;99481.91;4395823;32;20128;-81
2023/06/08 10:27:23;;;;;;;15.90;9.02;;;;;;;30.55;60.82;99481.75;4393279;32;35810;-81
2023/06/08 10:29:55;;;;;;;9.63;7.63;;;;;;;30.55;60.81;99482.59;4404880;32;20122;-81
2023/06/08 10:32:33;;;;;;;9.63;6.10;;;;;;;30.79;60.83;99478.00;4406931;32;20191;-81
2023/06/08 10:35:06;;;;;;;10.23;7.85;;;;;;;30.96;60.84;99479.47;4405359;32;20112;-81
2023/06/08 10:37:35;;;;;;;10.35;8.52;;;;;;;30.87;60.83;99485.97;4401209;32;20101;-82
2023/06/08 10:40:06;;;;;;;12.82;8.60;;;;;;;30.99;60.83;99476.38;4396749;32;20106;-81
2023/06/08 10:42:32;;;;;;;13.60;10.10;;;;;;;31.04;60.84;99470.47;4423454;32;20120;-81
2023/06/08 10:44:57;;;;;;;14.63;9.65;;;;;;;30.88;60.84;99476.88;4406535;32;20089;-81
2023/06/08 10:47:23;;;;;;;11.85;9.88;;;;;;;30.55;60.82;99465.66;4414190;32;20398;-81
2023/06/08 10:50:14;;;;;;;12.02;7.90;;;;;;;30.08;60.79;99466.78;4393724;32;20094;-81
2023/06/08 10:52:49;;;;;;;10.05;8.57;;;;;;;29.84;60.79;99464.25;4404070;32;20109;-81
2023/06/08 10:55:16;;;;;;;10.23;8.57;;;;;;;29.77;60.78;99458.75;4409099;32;20117;-81
2023/06/08 10:57:43;;;;;;;10.23;9.07;;;;;;;29.65;60.78;99457.53;4409741;32;20425;-81
2023/06/08 11:00:32;;;;;;;11.32;9.90;;;;;;;29.42;60.77;99454.78;4394174;32;20103;-81
2023/06/08 11:03:04;;;;;;;14.00;10.82;;;;;;;29.46;60.77;99455.28;4414039;32;20153;-82
2023/06/08 11:05:37;;;;;;;12.27;10.23;;;;;;;29.58;60.78;99454.72;4396488;32;20273;-81
2023/06/08 11:08:03;;;;;;;11.12;8.50;;;;;;;29.54;60.77;99466.78;4384740;32;20132;-81
2023/06/08 11:10:32;;;;;;;8.27;6.30;;;;;;;29.47;60.76;99463.16;4408954;32;20160;-81
2023/06/08 11:13:11;;;;;;;7.18;5.68;;;;;;;29.43;60.77;99472.53;4423155;32;20114;-81
2023/06/08 11:15:37;;;;;;;9.10;7.87;;;;;;;29.37;60.76;99454.50;4422844;32;20085;-82
2023/06/08 11:18:04;;;;;;;12.00;8.90;;;;;;;29.48;60.76;99461.31;4423359;32;20771;-81
2023/06/08 11:20:29;;;;;;;12.02;9.73;;;;;;;29.62;60.77;99455.19;4396700;32;20132;-82